createdAt,value
2017-08-28T00:01:17.123Z,65.70
2017-08-28T00:03:45.381Z,65.60
2017-08-28T00:06:13.625Z,65.50
2017-08-28T00:08:41.885Z,65.70
2017-08-28T00:11:10.126Z,65.50
2017-08-28T00:13:38.384Z,65.60
2017-08-28T00:16:06.627Z,65.50
2017-08-28T00:18:34.884Z,65.40
2017-08-28T00:21:03.124Z,65.50
2017-08-28T00:23:31.390Z,65.60
2017-08-28T00:25:59.636Z,65.70
2017-08-28T00:28:27.892Z,65.70
2017-08-28T00:30:56.919Z,66.30
2017-08-28T00:33:25.174Z,65.40
2017-08-28T00:35:54.277Z,65.50
2017-08-28T00:38:22.553Z,65.40
2017-08-28T00:40:50.808Z,65.40
2017-08-28T00:43:19.067Z,65.30
2017-08-28T00:45:47.305Z,65.60
2017-08-28T00:48:16.544Z,65.90
2017-08-28T00:50:44.787Z,65.80
2017-08-28T00:53:13.823Z,66.10
2017-08-28T00:55:42.054Z,66.10
2017-08-28T00:58:10.369Z,65.90
2017-08-28T01:00:38.621Z,66.10
2017-08-28T01:03:06.908Z,66.10
2017-08-28T01:05:35.154Z,66.40
2017-08-28T01:08:03.403Z,66.20
2017-08-28T01:10:31.660Z,66.00
2017-08-28T01:12:59.910Z,66.20
2017-08-28T01:15:28.168Z,66.50
2017-08-28T01:17:56.413Z,66.90
2017-08-28T01:20:24.664Z,66.60
2017-08-28T01:22:53.676Z,66.90
2017-08-28T01:25:22.723Z,67.00
2017-08-28T01:27:50.966Z,67.10
2017-08-28T01:30:19.228Z,67.00
2017-08-28T01:32:48.246Z,67.00
2017-08-28T01:35:16.507Z,66.90
2017-08-28T01:37:44.767Z,66.80
2017-08-28T01:40:13.032Z,67.10
2017-08-28T01:42:41.394Z,67.40
2017-08-28T01:45:09.682Z,67.40
2017-08-28T01:47:37.915Z,67.50
2017-08-28T01:50:06.174Z,67.50
2017-08-28T01:52:34.411Z,67.40
2017-08-28T01:55:02.671Z,67.60
2017-08-28T01:57:30.911Z,67.80
2017-08-28T01:59:59.241Z,67.80
2017-08-28T02:02:27.477Z,67.10
2017-08-28T02:04:55.728Z,67.90
2017-08-28T02:07:23.998Z,67.70
2017-08-28T02:09:52.258Z,67.70
2017-08-28T02:12:20.512Z,67.30
2017-08-28T02:14:48.770Z,67.50
2017-08-28T02:17:17.035Z,67.70
2017-08-28T02:19:45.278Z,67.80
2017-08-28T02:22:13.544Z,68.30
2017-08-28T02:24:42.541Z,69.50
2017-08-28T02:27:11.595Z,69.70
2017-08-28T02:29:39.816Z,69.60
2017-08-28T02:32:08.849Z,70.10
2017-08-28T02:34:37.083Z,70.10
2017-08-28T02:37:05.333Z,69.90
2017-08-28T02:39:33.579Z,70.50
2017-08-28T02:42:01.833Z,69.90
2017-08-28T02:44:30.103Z,70.00
2017-08-28T02:46:58.364Z,70.50
2017-08-28T02:49:26.663Z,70.40
2017-08-28T02:51:54.929Z,70.10
2017-08-28T02:54:23.163Z,70.30
2017-08-28T02:56:51.426Z,70.20
2017-08-28T02:59:20.422Z,70.10
2017-08-28T03:01:48.698Z,70.00
2017-08-28T03:04:16.948Z,70.40
2017-08-28T03:06:45.224Z,70.80
2017-08-28T03:09:13.476Z,70.90
2017-08-28T03:11:41.734Z,71.10
2017-08-28T03:14:10.761Z,71.70
2017-08-28T03:16:39.015Z,70.90
2017-08-28T03:19:07.274Z,70.90
2017-08-28T03:21:36.691Z,71.00
2017-08-28T03:24:04.971Z,71.00
2017-08-28T03:26:33.227Z,70.90
2017-08-28T03:29:01.474Z,71.90
2017-08-28T03:31:29.762Z,71.20
2017-08-28T03:33:58.026Z,71.20
2017-08-28T03:36:26.258Z,71.20
2017-08-28T03:38:54.515Z,71.40
2017-08-28T03:41:22.755Z,71.60
2017-08-28T03:43:51.079Z,71.60
2017-08-28T03:46:19.324Z,71.70
2017-08-28T03:48:47.576Z,71.80
2017-08-28T03:51:15.821Z,72.00
2017-08-28T03:53:44.088Z,71.90
2017-08-28T03:56:12.351Z,71.90
2017-08-28T03:58:40.606Z,72.00
2017-08-28T04:01:08.851Z,72.30
2017-08-28T04:03:37.228Z,72.30
2017-08-28T04:06:05.452Z,72.50
2017-08-28T04:08:33.798Z,72.60
2017-08-28T04:11:02.014Z,72.70
2017-08-28T04:13:30.288Z,72.80
2017-08-28T04:15:59.296Z,72.80
2017-08-28T04:18:28.523Z,72.70
2017-08-28T04:20:56.769Z,72.80
2017-08-28T04:23:25.077Z,72.90
2017-08-28T04:25:53.323Z,73.00
2017-08-28T04:28:21.571Z,73.00
2017-08-28T04:30:49.810Z,73.00
2017-08-28T04:33:18.090Z,73.20
2017-08-28T04:35:46.335Z,73.30
2017-08-28T04:38:14.619Z,73.10
2017-08-28T04:40:42.865Z,73.00
2017-08-28T04:43:11.113Z,73.00
2017-08-28T04:45:39.388Z,73.00
2017-08-28T04:48:07.633Z,72.60
2017-08-28T04:50:36.018Z,72.80
2017-08-28T04:53:04.243Z,72.90
2017-08-28T04:55:32.490Z,73.00
2017-08-28T04:58:01.518Z,73.10
2017-08-28T05:00:30.535Z,73.10
2017-08-28T05:02:58.794Z,73.20
2017-08-28T05:05:27.054Z,73.00
2017-08-28T05:07:56.070Z,72.80
2017-08-28T05:10:24.363Z,72.70
2017-08-28T05:12:52.605Z,73.80
2017-08-28T05:15:21.647Z,73.00
2017-08-28T05:17:49.902Z,73.00
2017-08-28T05:20:18.194Z,73.00
2017-08-28T05:22:46.430Z,72.60
2017-08-28T05:25:14.695Z,72.70
2017-08-28T05:27:42.944Z,72.10
2017-08-28T05:30:11.652Z,72.40
2017-08-28T05:32:41.054Z,72.60
2017-08-28T05:35:09.336Z,72.20
2017-08-28T05:37:37.589Z,72.40
2017-08-28T05:40:06.604Z,71.50
2017-08-28T05:42:34.857Z,71.50
2017-08-28T05:45:03.114Z,71.20
2017-08-28T05:47:31.432Z,70.60
2017-08-28T05:49:59.974Z,70.40
2017-08-28T05:52:28.195Z,70.50
2017-08-28T05:54:56.439Z,70.00
2017-08-28T05:57:24.710Z,69.80
2017-08-28T05:59:52.967Z,69.90
2017-08-28T06:02:21.252Z,69.40
2017-08-28T06:04:49.483Z,69.20
2017-08-28T06:07:17.752Z,69.20
2017-08-28T06:09:46.772Z,69.50
2017-08-28T06:12:15.032Z,69.40
2017-08-28T06:14:43.270Z,69.00
2017-08-28T06:17:11.539Z,68.90
2017-08-28T06:19:39.780Z,69.60
2017-08-28T06:22:08.837Z,68.10
2017-08-28T06:24:37.091Z,68.10
2017-08-28T06:27:05.350Z,67.90
2017-08-28T06:29:33.600Z,67.50
2017-08-28T06:32:01.850Z,67.60
2017-08-28T06:34:30.103Z,67.00
2017-08-28T06:36:58.414Z,66.50
2017-08-28T06:39:26.655Z,65.60
2017-08-28T06:41:55.719Z,64.10
2017-08-28T06:44:24.708Z,63.80
2017-08-28T06:46:52.982Z,64.50
2017-08-28T06:49:21.264Z,63.50
2017-08-28T06:51:49.575Z,62.90
2017-08-28T06:54:17.839Z,62.10
2017-08-28T06:56:46.495Z,61.70
2017-08-28T06:59:14.738Z,60.40
2017-08-28T07:01:43.010Z,59.70
2017-08-28T07:04:11.262Z,58.80
2017-08-28T07:06:39.511Z,58.10
2017-08-28T07:09:07.775Z,57.80
2017-08-28T07:11:36.024Z,56.40
2017-08-28T07:14:04.550Z,55.50
2017-08-28T07:16:32.813Z,54.70
2017-08-28T07:19:01.074Z,53.60
2017-08-28T07:21:29.318Z,53.20
2017-08-28T07:23:57.589Z,52.80
2017-08-28T07:26:25.849Z,51.90
2017-08-28T07:28:54.146Z,51.60
2017-08-28T07:31:22.378Z,51.90
2017-08-28T07:33:50.737Z,51.60
2017-08-28T07:36:18.980Z,50.70
2017-08-28T07:38:47.246Z,50.30
2017-08-28T07:41:15.502Z,50.30
2017-08-28T07:43:43.761Z,50.50
2017-08-28T07:46:12.001Z,50.00
2017-08-28T07:48:40.277Z,50.00
2017-08-28T07:51:08.516Z,49.10
2017-08-28T07:53:36.823Z,48.70
2017-08-28T07:56:05.029Z,48.50
2017-08-28T07:58:33.284Z,48.20
2017-08-28T08:01:02.310Z,47.20
2017-08-28T08:03:31.410Z,46.80
2017-08-28T08:05:59.739Z,46.80
2017-08-28T08:08:28.006Z,47.10
2017-08-28T08:10:56.285Z,46.70
2017-08-28T08:13:24.559Z,46.40
2017-08-28T08:15:52.959Z,45.20
2017-08-28T08:18:21.864Z,45.00
2017-08-28T08:20:51.826Z,44.90
2017-08-28T08:23:20.773Z,45.20
2017-08-28T08:25:49.374Z,44.80
2017-08-28T08:28:17.773Z,45.10
2017-08-28T08:30:46.228Z,44.50
2017-08-28T08:33:14.683Z,44.90
2017-08-28T08:35:43.795Z,44.20
2017-08-28T08:38:12.098Z,44.20
2017-08-28T08:40:40.472Z,44.40
2017-08-28T08:43:09.589Z,44.20
2017-08-28T08:45:37.930Z,44.70
2017-08-28T08:48:06.558Z,44.10
2017-08-28T08:50:34.796Z,43.10
2017-08-28T08:53:03.041Z,43.00
2017-08-28T08:55:31.300Z,42.60
2017-08-28T08:58:00.150Z,43.00
2017-08-28T09:00:28.989Z,42.40
2017-08-28T09:02:57.785Z,42.50
2017-08-28T09:05:26.131Z,42.50
2017-08-28T09:07:54.371Z,42.10
2017-08-28T09:10:22.653Z,42.00
2017-08-28T09:12:51.656Z,40.80
2017-08-28T09:15:20.680Z,41.30
2017-08-28T09:17:48.946Z,41.30
2017-08-28T09:20:17.197Z,40.90
2017-08-28T09:22:45.454Z,40.70
2017-08-28T09:25:13.689Z,40.20
2017-08-28T09:27:41.947Z,40.50
2017-08-28T09:30:10.182Z,40.60
2017-08-28T09:32:38.440Z,41.20
2017-08-28T09:35:06.685Z,40.40
2017-08-28T09:37:35.725Z,40.70
2017-08-28T09:40:03.967Z,40.70
2017-08-28T09:42:32.987Z,39.70
2017-08-28T09:45:01.246Z,39.60
2017-08-28T09:47:29.498Z,40.30
2017-08-28T09:49:57.742Z,39.70
2017-08-28T09:52:26.031Z,39.40
2017-08-28T09:54:54.270Z,39.70
2017-08-28T09:57:23.300Z,40.50
2017-08-28T09:59:51.553Z,40.40
2017-08-28T10:02:20.581Z,39.80
2017-08-28T10:04:48.822Z,39.80
2017-08-28T10:07:17.088Z,39.90
2017-08-28T10:09:46.247Z,40.00
2017-08-28T10:12:14.516Z,40.00
2017-08-28T10:14:42.783Z,39.30
2017-08-28T10:17:11.799Z,39.70
2017-08-28T10:19:40.062Z,39.70
2017-08-28T10:22:09.088Z,41.40
2017-08-28T10:24:37.347Z,41.40
2017-08-28T10:27:08.969Z,39.90
2017-08-28T10:29:37.248Z,39.60
2017-08-28T10:32:05.511Z,39.40
2017-08-28T10:34:33.768Z,40.00
2017-08-28T10:37:02.015Z,39.40
2017-08-28T10:39:30.283Z,40.40
2017-08-28T10:41:58.529Z,40.00
2017-08-28T10:44:26.804Z,39.80
2017-08-28T10:46:55.049Z,40.50
2017-08-28T10:49:23.302Z,40.30
2017-08-28T10:51:51.543Z,40.00
2017-08-28T10:54:20.096Z,40.50
2017-08-28T10:56:48.349Z,39.70
2017-08-28T10:59:16.590Z,38.90
2017-08-28T11:01:44.830Z,37.90
2017-08-28T11:04:13.102Z,38.20
2017-08-28T11:06:41.347Z,38.00
2017-08-28T11:09:09.610Z,37.10
2017-08-28T11:11:37.863Z,36.80
2017-08-28T11:14:06.133Z,35.60
2017-08-28T11:16:34.408Z,36.20
2017-08-28T11:19:02.665Z,36.00
2017-08-28T11:21:30.944Z,36.80
2017-08-28T11:23:59.219Z,36.30
2017-08-28T11:26:27.466Z,37.10
2017-08-28T11:28:55.710Z,37.20
2017-08-28T11:31:23.980Z,36.10
2017-08-28T11:33:52.234Z,35.00
2017-08-28T11:36:20.494Z,35.20
2017-08-28T11:38:48.747Z,34.50
2017-08-28T11:41:17.013Z,34.70
2017-08-28T11:43:45.279Z,34.30
2017-08-28T11:46:14.312Z,32.30
2017-08-28T11:48:42.570Z,32.20
2017-08-28T11:51:10.839Z,33.20
2017-08-28T11:53:39.095Z,33.50
2017-08-28T11:56:07.369Z,32.30
2017-08-28T11:58:35.632Z,32.70
2017-08-28T12:01:03.903Z,32.70
2017-08-28T12:03:32.150Z,33.90
2017-08-28T12:06:00.411Z,35.00
2017-08-28T12:08:28.651Z,35.50
2017-08-28T12:10:56.911Z,35.20
2017-08-28T12:13:25.162Z,35.10
2017-08-28T12:15:54.237Z,35.70
2017-08-28T12:18:22.484Z,35.70
2017-08-28T12:20:50.767Z,35.50
2017-08-28T12:23:19.023Z,36.50
2017-08-28T12:25:47.282Z,37.80
2017-08-28T12:28:16.310Z,37.60
2017-08-28T12:30:44.623Z,37.60
2017-08-28T12:33:12.891Z,37.30
2017-08-28T12:35:41.158Z,37.60
2017-08-28T12:38:09.431Z,38.10
2017-08-28T12:40:37.694Z,38.00
2017-08-28T12:43:05.975Z,37.90
2017-08-28T12:45:34.224Z,38.90
2017-08-28T12:48:02.490Z,38.20
2017-08-28T12:50:30.731Z,38.80
2017-08-28T12:52:58.990Z,39.20
2017-08-28T12:55:28.001Z,39.30
2017-08-28T12:57:56.268Z,39.30
2017-08-28T13:00:25.285Z,39.80
2017-08-28T13:02:53.552Z,39.80
2017-08-28T13:05:21.797Z,40.00
2017-08-28T13:07:50.047Z,39.60
2017-08-28T13:10:18.291Z,40.10
2017-08-28T13:12:48.724Z,41.10
2017-08-28T13:15:16.950Z,40.90
2017-08-28T13:17:45.259Z,40.90
2017-08-28T13:20:13.547Z,41.00
2017-08-28T13:22:41.838Z,40.90
2017-08-28T13:25:10.087Z,41.30
2017-08-28T13:27:38.346Z,41.00
2017-08-28T13:30:06.594Z,41.50
2017-08-28T13:32:34.867Z,41.10
2017-08-28T13:35:03.112Z,41.60
2017-08-28T13:37:31.378Z,41.10
2017-08-28T13:39:59.631Z,41.40
2017-08-28T13:42:28.673Z,41.20
2017-08-28T13:44:56.930Z,41.20
2017-08-28T13:47:25.181Z,41.50
2017-08-28T13:49:55.483Z,41.70
2017-08-28T13:52:23.765Z,42.60
2017-08-28T13:54:52.057Z,43.00
2017-08-28T13:57:21.070Z,43.00
2017-08-28T13:59:49.339Z,42.40
2017-08-28T14:02:18.360Z,43.00
2017-08-28T14:04:46.636Z,42.90
2017-08-28T14:07:14.886Z,43.30
2017-08-28T14:09:43.167Z,44.20
2017-08-28T14:12:11.414Z,44.30
2017-08-28T14:14:39.671Z,44.50
2017-08-28T14:17:07.922Z,44.20
2017-08-28T14:19:36.206Z,44.60
2017-08-28T14:22:04.467Z,44.80
2017-08-28T14:24:32.730Z,44.10
2017-08-28T14:27:00.987Z,44.90
2017-08-28T14:29:29.229Z,45.00
2017-08-28T14:31:57.507Z,44.80
2017-08-28T14:34:26.546Z,45.10
2017-08-28T14:36:54.799Z,45.10
2017-08-28T14:39:23.060Z,45.20
2017-08-28T14:41:51.307Z,45.70
2017-08-28T14:44:19.627Z,45.30
2017-08-28T14:46:47.883Z,45.70
2017-08-28T14:49:16.158Z,46.00
2017-08-28T14:51:44.439Z,45.70
2017-08-28T14:54:12.702Z,46.30
2017-08-28T14:56:40.965Z,46.30
2017-08-28T14:59:09.216Z,46.00
2017-08-28T15:01:38.252Z,46.10
2017-08-28T15:04:06.539Z,46.00
2017-08-28T15:06:34.798Z,46.50
2017-08-28T15:09:03.051Z,45.80
2017-08-28T15:11:31.327Z,46.00
2017-08-28T15:13:59.596Z,46.50
2017-08-28T15:16:27.858Z,45.50
2017-08-28T15:18:56.102Z,46.60
2017-08-28T15:21:24.358Z,47.10
2017-08-28T15:23:52.648Z,46.80
2017-08-28T15:26:20.908Z,46.70
2017-08-28T15:28:50.700Z,48.00
2017-08-28T15:31:19.793Z,48.00
2017-08-28T15:33:48.137Z,47.40
2017-08-28T15:36:16.477Z,47.10
2017-08-28T15:38:45.961Z,47.10
2017-08-28T15:41:15.031Z,47.50
2017-08-28T15:43:43.291Z,47.50
2017-08-28T15:46:11.560Z,47.60
2017-08-28T15:48:39.809Z,47.50
2017-08-28T15:51:08.068Z,47.20
2017-08-28T15:53:36.323Z,46.80
2017-08-28T15:56:04.578Z,46.80
2017-08-28T15:58:32.855Z,47.30
2017-08-28T16:01:01.125Z,47.30
2017-08-28T16:03:29.398Z,46.80
2017-08-28T16:05:58.202Z,47.10
2017-08-28T16:08:26.496Z,47.00
2017-08-28T16:10:55.341Z,47.50
2017-08-28T16:13:23.606Z,46.60
2017-08-28T16:15:51.867Z,46.60
2017-08-28T16:18:20.163Z,47.70
2017-08-28T16:20:48.414Z,47.30
2017-08-28T16:23:16.701Z,46.90
2017-08-28T16:25:45.552Z,47.10
2017-08-28T16:28:13.811Z,47.00
2017-08-28T16:30:42.090Z,47.70
2017-08-28T16:33:10.335Z,47.80
2017-08-28T16:35:38.574Z,47.80
2017-08-28T16:38:06.848Z,47.70
2017-08-28T16:40:35.123Z,47.50
2017-08-28T16:43:03.383Z,47.90
2017-08-28T16:45:31.675Z,48.10
2017-08-28T16:47:59.948Z,47.80
2017-08-28T16:50:28.195Z,47.60
2017-08-28T16:52:56.489Z,48.40
2017-08-28T16:55:24.762Z,48.40
2017-08-28T16:57:53.017Z,47.60
2017-08-28T17:00:21.246Z,48.20
2017-08-28T17:02:49.507Z,47.70
2017-08-28T17:05:17.755Z,47.80
2017-08-28T17:07:46.025Z,48.40
2017-08-28T17:10:14.304Z,48.00
2017-08-28T17:12:42.567Z,48.60
2017-08-28T17:15:10.813Z,49.00
2017-08-28T17:17:39.095Z,49.00
2017-08-28T17:20:07.343Z,49.30
2017-08-28T17:22:41.377Z,48.90
2017-08-28T17:25:09.625Z,49.40
2017-08-28T17:27:37.882Z,49.30
2017-08-28T17:30:06.146Z,49.40
2017-08-28T17:32:34.402Z,49.30
2017-08-28T17:35:02.672Z,49.50
2017-08-28T17:37:30.944Z,49.40
2017-08-28T17:39:59.208Z,49.80
2017-08-28T17:42:27.458Z,49.20
2017-08-28T17:44:55.714Z,49.50
2017-08-28T17:47:23.968Z,49.50
2017-08-28T17:49:52.239Z,49.90
2017-08-28T17:52:20.497Z,50.00
2017-08-28T17:54:48.759Z,50.10
2017-08-28T17:57:17.849Z,50.20
2017-08-28T17:59:46.138Z,50.10
2017-08-28T18:02:14.427Z,50.30
2017-08-28T18:04:42.684Z,50.00
2017-08-28T18:07:10.926Z,50.80
2017-08-28T18:09:39.979Z,50.90
2017-08-28T18:12:08.214Z,50.90
2017-08-28T18:14:36.492Z,51.30
2017-08-28T18:17:05.505Z,51.30
2017-08-28T18:19:33.762Z,51.30
2017-08-28T18:22:02.002Z,51.80
2017-08-28T18:24:30.279Z,52.10
2017-08-28T18:26:58.539Z,52.40
2017-08-28T18:29:26.843Z,52.30
2017-08-28T18:31:55.083Z,52.50
2017-08-28T18:34:23.398Z,52.60
2017-08-28T18:36:51.640Z,52.80
2017-08-28T18:39:20.202Z,52.50
2017-08-28T18:41:48.868Z,52.70
2017-08-28T18:44:17.128Z,53.20
2017-08-28T18:46:45.386Z,54.50
2017-08-28T18:49:13.633Z,55.60
2017-08-28T18:54:52.526Z,56.70
2017-08-28T18:57:20.778Z,57.50
2017-08-28T18:59:49.016Z,58.00
2017-08-28T19:02:18.040Z,58.40
2017-08-28T19:04:46.288Z,58.40
2017-08-28T19:07:14.578Z,58.50
2017-08-28T19:09:42.830Z,58.60
2017-08-28T19:12:11.114Z,58.80
2017-08-28T19:14:39.366Z,58.80
2017-08-28T19:17:07.614Z,58.90
2017-08-28T19:19:35.845Z,59.30
2017-08-28T19:22:04.100Z,59.10
2017-08-28T19:24:32.354Z,59.20
2017-08-28T19:27:00.614Z,59.10
2017-08-28T19:29:28.856Z,59.30
2017-08-28T19:31:57.121Z,59.30
2017-08-28T19:34:27.414Z,59.50
2017-08-28T19:36:55.823Z,59.60
2017-08-28T19:39:24.068Z,59.60
2017-08-28T19:41:52.325Z,59.60
2017-08-28T19:44:20.558Z,59.60
2017-08-28T19:46:49.580Z,59.70
2017-08-28T19:49:17.813Z,59.70
2017-08-28T19:51:46.059Z,59.90
2017-08-28T19:54:14.300Z,60.00
2017-08-28T19:56:42.556Z,60.00
2017-08-28T19:59:10.809Z,59.90
2017-08-28T20:01:40.980Z,60.00
2017-08-28T20:04:09.261Z,60.30
2017-08-28T20:06:37.536Z,60.30
2017-08-28T20:09:05.777Z,60.20
2017-08-28T20:11:34.782Z,61.00
2017-08-28T20:14:03.037Z,60.80
2017-08-28T20:16:31.280Z,60.80
2017-08-28T20:18:59.537Z,61.10
2017-08-28T20:21:27.768Z,60.80
2017-08-28T20:23:56.781Z,60.90
2017-08-28T20:26:25.009Z,60.90
2017-08-28T20:28:53.266Z,60.80
2017-08-28T20:31:21.508Z,61.20
2017-08-28T20:33:49.756Z,61.20
2017-08-28T20:36:18.756Z,60.80
2017-08-28T20:38:47.008Z,60.80
2017-08-28T20:41:15.235Z,60.60
2017-08-28T20:43:43.481Z,60.50
2017-08-28T20:46:12.476Z,60.70
2017-08-28T20:48:40.724Z,60.70
2017-08-28T20:51:08.956Z,60.30
2017-08-28T20:53:37.977Z,60.40
2017-08-28T20:56:06.968Z,60.40
2017-08-28T20:58:35.217Z,60.40
2017-08-28T21:01:03.468Z,60.70
2017-08-28T21:03:31.717Z,60.40
2017-08-28T21:05:59.957Z,60.60
2017-08-28T21:08:28.200Z,60.50
2017-08-28T21:10:56.540Z,60.20
2017-08-28T21:13:24.757Z,60.40
2017-08-28T21:15:52.992Z,60.40
2017-08-28T21:18:21.248Z,60.40
2017-08-28T21:20:49.480Z,60.90
2017-08-28T21:23:17.704Z,60.90
2017-08-28T21:25:46.803Z,61.00
2017-08-28T21:28:15.867Z,61.20
2017-08-28T21:30:44.136Z,61.40
2017-08-28T21:33:12.374Z,62.30
2017-08-28T21:35:40.620Z,63.40
2017-08-28T21:38:08.874Z,63.80
2017-08-28T21:40:37.124Z,63.30
2017-08-28T21:43:06.048Z,63.20
2017-08-28T21:45:34.356Z,63.00
2017-08-28T21:48:02.565Z,63.50
2017-08-28T21:50:30.808Z,64.70
2017-08-28T21:52:59.066Z,65.80
2017-08-28T21:55:27.296Z,65.80
2017-08-28T21:57:55.531Z,64.70
2017-08-28T22:00:24.537Z,64.40
2017-08-28T22:02:52.764Z,64.40
2017-08-28T22:05:21.017Z,65.00
2017-08-28T22:07:49.240Z,64.20
2017-08-28T22:10:17.498Z,64.00
2017-08-28T22:12:45.733Z,64.10
2017-08-28T22:15:13.980Z,63.80
2017-08-28T22:17:42.212Z,63.80
2017-08-28T22:20:10.473Z,64.00
2017-08-28T22:22:38.715Z,64.00
2017-08-28T22:25:06.972Z,64.00
2017-08-28T22:27:35.221Z,64.40
2017-08-28T22:30:03.451Z,64.70
2017-08-28T22:32:32.452Z,64.70
2017-08-28T22:35:00.692Z,64.70
2017-08-28T22:37:28.933Z,64.80
2017-08-28T22:39:57.173Z,65.10
2017-08-28T22:42:25.408Z,65.90
2017-08-28T22:44:53.633Z,65.20
2017-08-28T22:47:21.898Z,65.20
2017-08-28T22:49:50.124Z,65.00
2017-08-28T22:52:18.369Z,64.90
2017-08-28T22:54:46.632Z,65.30
2017-08-28T22:57:14.872Z,65.40
2017-08-28T22:59:43.946Z,65.30
2017-08-28T23:02:12.192Z,65.60
2017-08-28T23:04:40.432Z,66.30
2017-08-28T23:07:09.440Z,67.40
2017-08-28T23:09:37.672Z,67.40
2017-08-28T23:12:05.936Z,67.60
2017-08-28T23:14:34.171Z,67.40
2017-08-28T23:17:02.426Z,66.80
2017-08-28T23:19:30.658Z,67.40
2017-08-28T23:21:58.911Z,67.70
2017-08-28T23:24:27.145Z,67.40
2017-08-28T23:26:55.441Z,68.10
2017-08-28T23:29:23.670Z,68.60
2017-08-28T23:31:51.909Z,68.70
2017-08-28T23:34:20.140Z,68.90
2017-08-28T23:36:48.372Z,68.90
2017-08-28T23:39:16.619Z,69.00
2017-08-28T23:41:44.852Z,69.40
2017-08-28T23:44:13.126Z,69.20
2017-08-28T23:46:41.344Z,68.80
2017-08-28T23:49:09.600Z,68.20
2017-08-28T23:51:37.840Z,67.90
2017-08-28T23:54:06.140Z,68.00
2017-08-28T23:56:34.341Z,68.40
2017-08-28T23:59:02.585Z,68.10
